Time;durP1;ratioP1;P1;durP2;ratioP2;P2;SDS_P1;SDS_P2;PMS_P1;PMS_P2;Temp;Humidity;BMP_temperature;BMP_pressure;BME280_temperature;BME280_humidity;BME280_pressure;Samples;Min_cycle;Max_cycle;Signal;HPM_P1;HPM_P2
2024/01/12 00:01:55;;;;;;;13.55;9.55;;;7.10;60.30;9.10;103217.00;;;;5052782;28;20570;-78
2024/01/12 00:04:22;;;;;;;15.15;8.95;;;7.10;60.30;9.10;103213.00;;;;5039699;28;20199;-78
2024/01/12 00:06:50;;;;;;;13.25;8.23;;;7.10;60.30;9.10;103224.00;;;;5036146;28;20290;-78
2024/01/12 00:09:18;;;;;;;12.95;7.95;;;7.10;60.40;9.10;103220.00;;;;5035365;28;20221;-78
2024/01/12 00:11:45;;;;;;;12.85;8.13;;;7.10;60.30;9.20;103227.00;;;;5032904;28;20196;-78
2024/01/12 00:14:14;;;;;;;15.40;9.38;;;7.10;60.40;9.10;103228.00;;;;5036170;28;20287;-78
2024/01/12 00:16:44;;;;;;;14.77;8.27;;;7.20;60.30;9.20;103231.00;;;;5045706;28;20677;-78
2024/01/12 00:19:11;;;;;;;12.80;7.75;;;7.20;60.30;9.20;103226.00;;;;5035731;28;20458;-78
2024/01/12 00:21:38;;;;;;;15.10;9.38;;;7.20;60.30;9.20;103225.00;;;;5053399;28;20212;-78
2024/01/12 00:24:07;;;;;;;13.85;8.40;;;7.20;60.30;9.10;103227.00;;;;5042395;28;20295;-78
2024/01/12 00:26:34;;;;;;;12.80;8.73;;;7.20;60.30;9.20;103219.00;;;;5046018;28;20677;-78
2024/01/12 00:29:01;;;;;;;14.48;9.60;;;7.20;60.20;9.20;103220.00;;;;5051596;28;20279;-78
2024/01/12 00:31:28;;;;;;;13.20;9.07;;;7.20;60.20;9.20;103218.00;;;;5043772;28;20222;-78
2024/01/12 00:33:55;;;;;;;11.52;8.57;;;7.20;60.20;9.10;103222.00;;;;5031727;28;20200;-77
2024/01/12 00:36:22;;;;;;;14.23;8.73;;;7.20;60.20;9.10;103218.00;;;;5052734;28;20680;-76
2024/01/12 00:38:49;;;;;;;13.30;8.88;;;7.10;60.20;9.20;103218.00;;;;5050921;28;20201;-77
2024/01/12 00:41:18;;;;;;;13.30;8.70;;;7.20;60.90;9.10;103218.00;;;;5043775;28;20207;-77
2024/01/12 00:43:45;;;;;;;11.77;7.88;;;7.10;60.10;9.20;103228.00;;;;5042901;28;20200;-77
2024/01/12 00:46:12;;;;;;;13.45;7.57;;;7.10;60.10;9.20;103232.00;;;;5047687;28;20197;-77
2024/01/12 00:48:39;;;;;;;12.68;7.90;;;7.20;60.20;9.10;103236.00;;;;5032480;28;20189;-77
2024/01/12 00:51:06;;;;;;;13.07;7.50;;;7.20;60.20;9.10;103238.00;;;;5038865;28;20283;-77
2024/01/12 00:53:33;;;;;;;11.48;5.75;;;7.10;60.10;9.10;103225.00;;;;5032389;28;20206;-77
2024/01/12 00:56:00;;;;;;;8.77;5.53;;;7.10;60.20;9.20;103235.00;;;;5046689;28;20228;-77
2024/01/12 00:58:29;;;;;;;7.90;5.45;;;7.10;60.30;9.10;103229.00;;;;5030803;28;20541;-77
2024/01/12 01:00:56;;;;;;;7.97;4.75;;;7.20;60.30;9.20;103238.00;;;;5043954;28;20805;-77
2024/01/12 01:03:23;;;;;;;11.32;5.53;;;7.20;60.30;9.10;103244.00;;;;5031416;28;20208;-77
2024/01/12 01:05:50;;;;;;;7.78;4.35;;;7.10;60.20;9.20;103243.00;;;;5037050;28;20204;-77
2024/01/12 01:08:17;;;;;;;7.03;3.92;;;7.10;60.30;9.10;103243.00;;;;5031936;28;20624;-77
2024/01/12 01:10:45;;;;;;;8.18;4.10;;;7.20;60.40;9.10;103247.00;;;;5036081;28;20200;-77
2024/01/12 01:13:13;;;;;;;7.82;3.28;;;7.10;60.40;9.20;103251.00;;;;5029057;28;20197;-77
2024/01/12 01:15:42;;;;;;;10.10;4.35;;;7.20;60.50;9.10;103255.00;;;;5032045;28;20642;-77
2024/01/12 01:18:10;;;;;;;6.93;3.33;;;7.20;60.50;9.20;103246.00;;;;5037845;28;20211;-77
2024/01/12 01:20:37;;;;;;;10.80;2.72;;;7.20;60.40;9.10;103245.00;;;;5045829;28;20255;-77
2024/01/12 01:23:05;;;;;;;5.82;3.05;;;7.20;60.50;9.10;103238.00;;;;5047857;28;20213;-78
2024/01/12 01:25:32;;;;;;;6.55;3.05;;;7.20;60.50;9.20;103238.00;;;;5047843;28;20202;-77
2024/01/12 01:28:00;;;;;;;6.65;3.05;;;7.20;60.60;9.20;103246.00;;;;5052088;28;20200;-77
2024/01/12 01:30:27;;;;;;;6.05;2.28;;;7.20;60.60;9.20;103245.00;;;;5033609;28;20192;-77
2024/01/12 01:32:55;;;;;;;5.30;2.35;;;7.20;60.50;9.20;103242.00;;;;5030595;28;20218;-76
2024/01/12 01:35:23;;;;;;;5.95;2.67;;;7.30;60.60;9.20;103243.00;;;;5032496;28;20227;-77
2024/01/12 01:37:50;;;;;;;9.13;3.63;;;7.30;60.60;9.30;103243.00;;;;5031736;28;20197;-77
2024/01/12 01:40:17;;;;;;;7.95;3.85;;;7.30;60.60;9.30;103241.00;;;;5043211;28;20226;-78
2024/01/12 01:42:48;;;;;;;7.63;3.60;;;7.30;60.60;9.30;103242.00;;;;5040527;28;20726;-77
2024/01/12 01:45:15;;;;;;;7.85;3.70;;;7.30;60.50;9.30;103239.00;;;;5032723;28;20199;-77
2024/01/12 01:47:45;;;;;;;8.00;4.03;;;7.30;60.40;9.30;103235.00;;;;5045203;28;20286;-76
2024/01/12 01:50:16;;;;;;;8.77;4.25;;;7.30;60.20;9.30;103237.00;;;;5051371;28;20192;-77
2024/01/12 01:52:46;;;;;;;6.13;3.70;;;7.30;60.10;9.30;103237.00;;;;5037041;28;20192;-76
2024/01/12 01:55:15;;;;;;;5.47;3.80;;;7.30;60.10;9.30;103235.00;;;;5034146;28;20196;-76
2024/01/12 01:57:43;;;;;;;8.63;3.55;;;7.30;60.10;9.30;103235.00;;;;5033186;28;20219;-77
2024/01/12 02:00:12;;;;;;;7.50;3.63;;;7.30;60.20;9.30;103232.00;;;;5047233;28;20234;-77
2024/01/12 02:02:39;;;;;;;7.07;3.85;;;7.30;60.10;9.30;103239.00;;;;5040469;28;20287;-77
2024/01/12 02:05:11;;;;;;;6.75;3.53;;;7.30;60.10;9.30;103241.00;;;;5048157;28;20195;-77
2024/01/12 02:07:40;;;;;;;9.45;3.60;;;7.30;60.20;9.30;103242.00;;;;5051313;28;20210;-76
2024/01/12 02:10:09;;;;;;;7.13;3.83;;;7.30;60.30;9.30;103244.00;;;;5051082;28;20203;-77
2024/01/12 02:12:37;;;;;;;8.73;3.60;;;7.30;60.30;9.30;103233.00;;;;5044745;28;20250;-77
2024/01/12 02:15:07;;;;;;;7.55;3.58;;;7.30;60.20;9.30;103232.00;;;;5033838;28;20200;-77
2024/01/12 02:17:34;;;;;;;5.35;3.17;;;7.30;60.20;9.30;103234.00;;;;5043652;28;20640;-77
2024/01/12 02:20:02;;;;;;;7.55;3.55;;;7.30;60.30;9.30;103225.00;;;;5039607;28;20224;-77
2024/01/12 02:22:30;;;;;;;5.57;2.97;;;7.30;60.20;9.30;103227.00;;;;5035457;28;20715;-77
2024/01/12 02:24:57;;;;;;;4.57;2.90;;;7.30;60.30;9.30;103227.00;;;;5052902;28;20572;-77
2024/01/12 02:27:25;;;;;;;6.65;3.72;;;7.30;60.30;9.30;103226.00;;;;5035653;28;20649;-77
2024/01/12 02:29:52;;;;;;;5.20;3.00;;;7.30;60.30;9.30;103223.00;;;;5045662;28;20206;-77
2024/01/12 02:32:19;;;;;;;7.80;3.28;;;7.30;60.30;9.30;103232.00;;;;5043970;28;20204;-76
2024/01/12 02:34:46;;;;;;;6.55;2.90;;;7.30;60.40;9.30;103227.00;;;;5039348;28;20642;-77
2024/01/12 02:37:13;;;;;;;4.22;2.40;;;7.30;60.30;9.30;103234.00;;;;5033957;28;20223;-77
2024/01/12 02:39:42;;;;;;;6.05;2.95;;;7.30;60.40;9.30;103235.00;;;;5042439;28;20699;-77
2024/01/12 02:42:09;;;;;;;5.65;3.08;;;7.30;60.30;9.30;103231.00;;;;5053911;28;20203;-77
2024/01/12 02:44:36;;;;;;;9.63;2.95;;;7.30;60.30;9.30;103223.00;;;;5040892;28;20640;-77
2024/01/12 02:47:03;;;;;;;9.70;3.40;;;7.30;60.30;9.30;103230.00;;;;5034956;28;20279;-78
2024/01/12 02:49:30;;;;;;;13.18;4.18;;;7.30;60.30;9.30;103226.00;;;;5037260;28;20196;-77
2024/01/12 02:51:57;;;;;;;7.38;2.95;;;7.30;60.20;9.30;103221.00;;;;5034226;28;20193;-77
2024/01/12 02:54:24;;;;;;;8.73;3.40;;;7.30;60.30;9.30;103221.00;;;;5044682;28;20207;-78
2024/01/12 02:56:53;;;;;;;6.95;3.13;;;7.30;60.40;9.30;103209.00;;;;5034726;28;20203;-78
2024/01/12 02:59:20;;;;;;;8.68;3.50;;;7.30;60.30;9.30;103215.00;;;;5039370;28;20741;-78
2024/01/12 03:01:47;;;;;;;7.15;2.83;;;7.30;60.40;9.30;103205.00;;;;5034252;28;20210;-78
2024/01/12 03:04:14;;;;;;;10.63;3.83;;;7.30;60.40;9.30;103207.00;;;;5038218;28;20192;-78
2024/01/12 03:06:41;;;;;;;7.55;3.33;;;7.30;60.40;9.30;103208.00;;;;5033318;28;20196;-78
2024/01/12 03:09:10;;;;;;;9.00;3.17;;;7.30;60.30;9.30;103208.00;;;;5037108;28;20200;-77
2024/01/12 03:11:37;;;;;;;5.72;3.20;;;7.30;60.30;9.30;103204.00;;;;5033630;28;20283;-78
2024/01/12 03:14:05;;;;;;;6.10;3.05;;;7.30;60.30;9.30;103205.00;;;;5045288;28;20203;-77
2024/01/12 03:16:32;;;;;;;6.25;2.38;;;7.30;60.40;9.30;103207.00;;;;5035687;28;20657;-78
2024/01/12 03:18:59;;;;;;;3.30;2.45;;;7.30;60.40;9.30;103210.00;;;;5038615;28;20760;-78
2024/01/12 03:21:26;;;;;;;7.57;3.17;;;7.30;60.40;9.30;103211.00;;;;5053215;28;20227;-78
2024/01/12 03:23:53;;;;;;;3.83;2.10;;;7.30;60.50;9.30;103206.00;;;;5051533;28;20195;-78
2024/01/12 03:26:20;;;;;;;6.05;2.22;;;7.30;60.50;9.30;103200.00;;;;5034149;28;20210;-78
2024/01/12 03:28:47;;;;;;;3.50;1.98;;;7.30;60.60;9.30;103192.00;;;;5035384;28;20671;-78
2024/01/12 03:31:19;;;;;;;6.35;2.78;;;7.30;60.60;9.30;103188.00;;;;5040533;28;20204;-77
2024/01/12 03:33:46;;;;;;;4.93;2.20;;;7.30;60.60;9.30;103187.00;;;;5039129;28;20665;-77
2024/01/12 03:36:14;;;;;;;7.45;2.58;;;7.30;60.50;9.30;103187.00;;;;5033512;28;20604;-77
2024/01/12 03:38:41;;;;;;;6.82;3.17;;;7.30;60.40;9.30;103187.00;;;;5037383;28;20202;-77
2024/01/12 03:41:08;;;;;;;6.28;2.58;;;7.30;60.40;9.30;103176.00;;;;5053900;28;20230;-77
2024/01/12 03:43:37;;;;;;;7.30;2.78;;;7.30;60.40;9.30;103183.00;;;;5052550;28;20203;-78
2024/01/12 03:46:05;;;;;;;7.00;2.60;;;7.30;60.40;9.30;103186.00;;;;5037652;28;20587;-77
2024/01/12 03:48:33;;;;;;;8.38;2.15;;;7.30;60.40;9.30;103182.00;;;;5037504;28;20206;-78
2024/01/12 03:51:00;;;;;;;6.55;2.40;;;7.30;60.40;9.30;103179.00;;;;5046390;28;20210;-78
2024/01/12 03:53:27;;;;;;;5.10;1.90;;;7.30;60.40;9.30;103192.00;;;;5033911;28;20201;-77
2024/01/12 03:55:54;;;;;;;5.25;2.40;;;7.30;60.50;9.30;103186.00;;;;5035965;28;20197;-77
2024/01/12 03:58:21;;;;;;;5.05;2.58;;;7.30;60.50;9.30;103180.00;;;;5031575;28;20196;-77
2024/01/12 04:00:48;;;;;;;5.80;2.20;;;7.30;60.60;9.30;103194.00;;;;5039138;28;20228;-77
2024/01/12 04:03:15;;;;;;;7.65;2.25;;;7.30;60.60;9.30;103187.00;;;;5045084;28;20201;-77
2024/01/12 04:05:44;;;;;;;5.63;2.83;;;7.30;60.60;9.30;103197.00;;;;5032422;28;20641;-77
2024/01/12 04:08:11;;;;;;;4.13;2.13;;;7.30;60.60;9.30;103200.00;;;;5041431;28;20234;-77
2024/01/12 04:10:38;;;;;;;6.57;2.33;;;7.30;60.60;9.30;103194.00;;;;5052167;28;20200;-77
2024/01/12 04:13:05;;;;;;;4.18;1.88;;;7.30;60.50;9.30;103195.00;;;;5035992;28;20208;-77
2024/01/12 04:15:32;;;;;;;16.42;2.65;;;7.30;60.50;9.30;103194.00;;;;5049419;28;20196;-77
2024/01/12 04:17:59;;;;;;;4.70;1.77;;;7.30;60.60;9.30;103201.00;;;;5048075;28;20204;-77
2024/01/12 04:20:26;;;;;;;5.45;2.60;;;7.30;60.50;9.30;103202.00;;;;5052832;28;20233;-77
2024/01/12 04:22:54;;;;;;;4.82;2.63;;;7.30;60.50;9.30;103207.00;;;;5049550;28;20203;-76
2024/01/12 04:25:21;;;;;;;6.35;1.77;;;7.30;60.60;9.30;103207.00;;;;5043354;28;20195;-77
2024/01/12 04:27:48;;;;;;;6.35;2.33;;;7.30;60.60;9.30;103191.00;;;;5037601;28;20668;-77
2024/01/12 04:30:15;;;;;;;5.95;2.45;;;7.30;60.60;9.30;103185.00;;;;5029829;28;20204;-77
2024/01/12 04:32:43;;;;;;;5.72;2.53;;;7.30;60.60;9.30;103185.00;;;;5031833;28;20204;-77
2024/01/12 04:35:11;;;;;;;5.80;2.35;;;7.30;60.50;9.30;103187.00;;;;5031975;28;20232;-78
2024/01/12 04:37:38;;;;;;;5.18;2.30;;;7.30;60.50;9.30;103176.00;;;;5041201;28;20192;-77
2024/01/12 04:40:08;;;;;;;6.35;2.50;;;7.30;60.50;9.30;103176.00;;;;5032340;28;20196;-77
2024/01/12 04:42:35;;;;;;;5.25;2.20;;;7.30;60.60;9.30;103166.00;;;;5032489;28;20232;-78
2024/01/12 04:45:02;;;;;;;4.85;2.65;;;7.30;60.60;9.30;103159.00;;;;5031519;28;20203;-78
2024/01/12 04:47:31;;;;;;;7.25;2.30;;;7.30;60.50;9.20;103164.00;;;;5038441;28;20204;-77
2024/01/12 04:49:58;;;;;;;5.82;2.25;;;7.30;61.20;9.30;103171.00;;;;5039533;28;20287;-77
2024/01/12 04:52:25;;;;;;;5.15;2.53;;;7.30;60.50;9.20;103159.00;;;;5031455;28;20559;-77
2024/01/12 04:54:52;;;;;;;6.03;2.22;;;7.30;61.20;9.30;103161.00;;;;5032651;28;20192;-77
2024/01/12 04:57:20;;;;;;;6.43;2.40;;;7.30;60.60;9.30;103162.00;;;;5030980;28;20291;-77
2024/01/12 04:59:47;;;;;;;6.28;2.45;;;7.30;60.60;9.30;103157.00;;;;5034758;28;20218;-77
2024/01/12 05:02:14;;;;;;;4.70;2.35;;;7.30;60.60;9.30;103146.00;;;;5032154;28;20235;-77
2024/01/12 05:04:41;;;;;;;3.55;2.40;;;7.30;60.60;9.30;103155.00;;;;5032678;28;20294;-78
2024/01/12 05:07:08;;;;;;;3.08;1.80;;;7.30;60.60;9.20;103142.00;;;;5031605;28;20576;-78
2024/01/12 05:09:35;;;;;;;6.55;2.13;;;7.30;60.60;9.30;103146.00;;;;5038808;28;20196;-77
2024/01/12 05:12:04;;;;;;;4.05;2.28;;;7.30;60.60;9.30;103154.00;;;;5044681;28;20193;-77
2024/01/12 05:14:33;;;;;;;7.78;2.45;;;7.30;60.60;9.30;103157.00;;;;5031496;28;20521;-77
2024/01/12 05:17:00;;;;;;;3.55;2.13;;;7.30;60.60;9.30;103163.00;;;;5040510;28;20718;-77
2024/01/12 05:19:27;;;;;;;6.28;2.38;;;7.30;60.60;9.30;103167.00;;;;5051055;28;20664;-77
2024/01/12 05:21:54;;;;;;;5.35;2.13;;;7.30;60.60;9.30;103154.00;;;;5052041;28;20224;-77
2024/01/12 05:24:21;;;;;;;4.40;2.17;;;7.30;60.60;9.30;103168.00;;;;5044429;28;20200;-77
2024/01/12 05:26:48;;;;;;;6.15;2.08;;;7.30;60.60;9.30;103166.00;;;;5031955;28;20258;-78
2024/01/12 05:29:15;;;;;;;8.90;2.40;;;7.30;60.60;9.30;103162.00;;;;5036780;28;20282;-77
2024/01/12 05:31:45;;;;;;;5.35;1.98;;;7.30;60.60;9.20;103152.00;;;;5046396;28;20210;-77
2024/01/12 05:34:12;;;;;;;4.57;2.10;;;7.30;60.70;9.30;103162.00;;;;5049181;28;20206;-77
2024/01/12 05:36:39;;;;;;;5.28;1.98;;;7.30;60.60;9.30;103163.00;;;;5048466;28;20230;-77
2024/01/12 05:39:06;;;;;;;3.88;1.77;;;7.30;60.60;9.30;103173.00;;;;5031269;28;20208;-77
2024/01/12 05:41:33;;;;;;;3.72;2.17;;;7.30;60.60;9.30;103167.00;;;;5031422;28;20227;-76
2024/01/12 05:44:00;;;;;;;4.80;2.03;;;7.30;60.60;9.30;103165.00;;;;5039819;28;20215;-77
2024/01/12 05:46:27;;;;;;;5.07;2.10;;;7.20;60.70;9.30;103167.00;;;;5030525;28;20287;-77
2024/01/12 05:48:56;;;;;;;5.10;2.22;;;7.20;60.70;9.30;103162.00;;;;5043459;28;20641;-77
2024/01/12 05:51:23;;;;;;;5.03;2.38;;;7.30;60.70;9.30;103159.00;;;;5032892;28;20626;-77
2024/01/12 05:53:50;;;;;;;3.95;2.00;;;7.30;60.80;9.30;103160.00;;;;5032344;28;20200;-77
2024/01/12 05:56:17;;;;;;;5.57;2.38;;;7.30;60.80;9.30;103166.00;;;;5030070;28;20210;-77
2024/01/12 05:58:44;;;;;;;6.40;2.47;;;7.20;60.80;9.30;103169.00;;;;5034834;28;20297;-77
2024/01/12 06:01:11;;;;;;;3.75;2.10;;;7.30;60.90;9.30;103166.00;;;;5042804;28;20341;-77
2024/01/12 06:03:38;;;;;;;3.28;1.98;;;7.30;61.60;9.30;103169.00;;;;5041859;28;20191;-78
2024/01/12 06:06:07;;;;;;;2.95;1.77;;;7.30;61.00;9.30;103173.00;;;;5044395;28;20207;-78
2024/01/12 06:08:34;;;;;;;3.33;1.42;;;7.30;61.00;9.30;103168.00;;;;5021070;28;20188;-78
2024/01/12 06:11:01;;;;;;;7.32;2.17;;;7.30;61.00;9.30;103177.00;;;;5030374;28;20429;-78
2024/01/12 06:13:28;;;;;;;4.70;2.10;;;7.30;61.00;9.30;103168.00;;;;5031723;28;20567;-78
2024/01/12 06:15:55;;;;;;;3.90;1.73;;;7.30;61.00;9.30;103175.00;;;;5029327;28;20192;-78
2024/01/12 06:18:22;;;;;;;3.38;2.25;;;7.30;60.90;9.30;103181.00;;;;5031038;28;20201;-78
2024/01/12 06:20:49;;;;;;;15.73;8.77;;;7.30;60.90;9.30;103186.00;;;;5031416;28;20228;-78
2024/01/12 06:23:17;;;;;;;15.02;9.75;;;7.30;60.90;9.30;103187.00;;;;5030360;28;20647;-78
2024/01/12 06:25:44;;;;;;;14.00;8.10;;;7.30;61.00;9.30;103192.00;;;;5032718;28;20189;-78
2024/01/12 06:28:13;;;;;;;14.70;7.72;;;7.30;61.00;9.30;103192.00;;;;5031265;28;20208;-78
2024/01/12 06:30:40;;;;;;;9.95;6.28;;;7.30;61.70;9.40;103190.00;;;;5013720;28;20227;-78
2024/01/12 06:33:07;;;;;;;10.85;5.88;;;7.30;61.00;9.30;103190.00;;;;5028827;28;20219;-78
2024/01/12 06:35:35;;;;;;;7.85;4.95;;;7.30;61.00;9.40;103185.00;;;;5029415;28;20716;-78
2024/01/12 06:38:02;;;;;;;9.98;4.53;;;7.30;61.00;9.30;103183.00;;;;5024510;28;20190;-78
2024/01/12 06:40:31;;;;;;;7.45;3.92;;;7.30;61.00;9.30;103184.00;;;;5043098;28;20255;-78
2024/01/12 06:42:58;;;;;;;7.47;3.30;;;7.30;61.10;9.40;103190.00;;;;5029647;28;20202;-78
2024/01/12 06:45:25;;;;;;;5.38;3.30;;;7.30;61.00;9.40;103192.00;;;;5035195;28;20291;-76
2024/01/12 06:47:52;;;;;;;7.15;2.78;;;7.30;61.00;9.40;103186.00;;;;5031129;28;20208;-77
2024/01/12 06:50:19;;;;;;;5.38;2.85;;;7.30;60.90;9.30;103182.00;;;;5029852;28;20196;-77
2024/01/12 06:52:46;;;;;;;5.43;2.65;;;7.30;61.10;9.30;103172.00;;;;5026971;28;20287;-77
2024/01/12 06:55:13;;;;;;;5.10;2.55;;;7.40;61.10;9.40;103186.00;;;;5031499;28;20588;-76
2024/01/12 06:57:43;;;;;;;8.93;2.78;;;7.30;61.00;9.40;103187.00;;;;5032671;28;20200;-77
2024/01/12 07:00:11;;;;;;;4.82;2.22;;;7.40;61.00;9.40;103183.00;;;;5025375;28;20193;-77
2024/01/12 07:02:39;;;;;;;6.38;1.98;;;7.40;61.00;9.40;103179.00;;;;5014857;28;20224;-77
2024/01/12 07:05:08;;;;;;;5.82;2.50;;;7.30;60.90;9.40;103179.00;;;;5027335;28;20203;-77
2024/01/12 07:07:35;;;;;;;8.60;2.00;;;7.40;60.90;9.40;103172.00;;;;5046370;28;20359;-77
2024/01/12 07:10:02;;;;;;;5.32;1.92;;;7.30;60.90;9.40;103174.00;;;;5048218;28;20569;-77
2024/01/12 07:12:29;;;;;;;6.60;2.50;;;7.40;60.90;9.40;103164.00;;;;5039540;28;20295;-77
2024/01/12 07:14:57;;;;;;;5.47;2.10;;;7.40;61.00;9.40;103169.00;;;;5041570;28;20691;-77
2024/01/12 07:17:24;;;;;;;3.30;1.65;;;7.30;60.90;9.40;103165.00;;;;5054109;28;20747;-77
2024/01/12 07:19:51;;;;;;;4.82;2.00;;;7.30;60.90;9.40;103176.00;;;;5054242;28;20646;-77
2024/01/12 07:22:18;;;;;;;4.40;2.20;;;7.30;60.90;9.40;103182.00;;;;5053997;28;20231;-77
2024/01/12 07:24:45;;;;;;;6.13;1.77;;;7.30;60.90;9.40;103167.00;;;;5054137;28;20286;-77
2024/01/12 07:27:12;;;;;;;4.15;2.00;;;7.30;60.90;9.40;103176.00;;;;5038550;28;20222;-77
2024/01/12 07:29:39;;;;;;;2.63;1.42;;;7.30;61.70;9.40;103161.00;;;;5033423;28;20654;-77
2024/01/12 07:32:08;;;;;;;3.85;1.55;;;7.30;60.90;9.30;103174.00;;;;5042112;28;20206;-77
2024/01/12 07:34:35;;;;;;;4.30;1.80;;;7.30;61.00;9.30;103170.00;;;;5053952;28;20242;-77
2024/01/12 07:37:02;;;;;;;2.83;1.63;;;7.30;61.00;9.30;103162.00;;;;5053605;28;20231;-77
2024/01/12 07:39:29;;;;;;;3.85;1.92;;;7.30;61.00;9.30;103170.00;;;;5054029;28;20715;-77
2024/01/12 07:41:56;;;;;;;5.75;1.80;;;7.30;61.00;9.30;103170.00;;;;5038515;28;20215;-77
2024/01/12 07:44:24;;;;;;;4.93;2.20;;;7.30;61.00;9.30;103164.00;;;;5033197;28;20588;-77
2024/01/12 07:46:51;;;;;;;6.63;1.70;;;7.30;60.90;9.40;103170.00;;;;5033032;28;20210;-77
2024/01/12 07:49:19;;;;;;;3.50;2.05;;;7.30;61.00;9.40;103168.00;;;;5034237;28;20678;-77
2024/01/12 07:51:46;;;;;;;6.28;2.72;;;7.30;61.00;9.40;103163.00;;;;5031943;28;20209;-77
2024/01/12 07:54:13;;;;;;;3.90;2.42;;;7.30;61.00;9.40;103165.00;;;;5031546;28;20236;-77
2024/01/12 07:56:40;;;;;;;5.35;2.33;;;7.30;61.20;9.40;103163.00;;;;5034004;28;20204;-76
2024/01/12 07:59:07;;;;;;;3.65;1.80;;;7.40;61.20;9.40;103166.00;;;;5034777;28;20666;-77
2024/01/12 08:01:34;;;;;;;8.07;2.33;;;7.30;61.10;9.40;103170.00;;;;5051670;28;20224;-78
2024/01/12 08:04:02;;;;;;;4.43;2.38;;;7.40;61.30;9.40;103158.00;;;;5027488;28;20200;-78
2024/01/12 08:06:31;;;;;;;6.15;2.60;;;7.30;61.10;9.40;103167.00;;;;5042997;28;20288;-78
2024/01/12 08:08:58;;;;;;;3.25;2.15;;;7.40;61.20;9.40;103173.00;;;;5051009;28;20290;-78
2024/01/12 08:11:25;;;;;;;3.60;2.42;;;7.40;61.20;9.40;103168.00;;;;5051596;28;20309;-78
2024/01/12 08:13:53;;;;;;;4.90;2.10;;;7.40;61.30;9.40;103177.00;;;;5051237;28;20522;-78
2024/01/12 08:16:21;;;;;;;5.50;2.85;;;7.40;61.30;9.50;103174.00;;;;5051289;28;20661;-78
2024/01/12 08:18:48;;;;;;;3.92;2.35;;;7.40;61.30;9.50;103184.00;;;;5036739;28;20717;-78
2024/01/12 08:21:15;;;;;;;3.53;2.17;;;7.50;61.40;9.50;103183.00;;;;5032610;28;20661;-78
2024/01/12 08:23:44;;;;;;;6.30;2.60;;;7.50;61.30;9.50;103190.00;;;;5046830;28;20215;-78
2024/01/12 08:26:11;;;;;;;4.38;2.55;;;7.50;61.40;9.50;103189.00;;;;5053131;28;20418;-77
2024/01/12 08:28:38;;;;;;;6.35;3.70;;;7.50;61.40;9.50;103182.00;;;;5053049;28;20192;-77
2024/01/12 08:31:05;;;;;;;6.40;3.65;;;7.50;62.00;9.60;103184.00;;;;5052588;28;20198;-77
2024/01/12 08:33:32;;;;;;;6.65;3.15;;;7.50;61.40;9.50;103179.00;;;;5037586;28;20633;-78
2024/01/12 08:35:59;;;;;;;7.55;3.33;;;7.50;61.40;9.60;103180.00;;;;5032908;28;20220;-78
2024/01/12 08:38:26;;;;;;;4.63;2.60;;;7.60;61.40;9.60;103176.00;;;;5032959;28;20593;-78
2024/01/12 08:40:54;;;;;;;4.53;2.70;;;7.60;61.40;9.60;103177.00;;;;5033727;28;20211;-78
2024/01/12 08:43:21;;;;;;;5.43;2.78;;;7.60;61.40;9.70;103176.00;;;;5032666;28;20230;-77
2024/01/12 08:45:48;;;;;;;5.05;3.22;;;7.60;61.30;9.70;103180.00;;;;5032843;28;20200;-78
2024/01/12 08:48:15;;;;;;;7.47;2.95;;;7.60;61.30;9.70;103191.00;;;;5032046;28;20232;-78
2024/01/12 08:50:42;;;;;;;7.47;2.88;;;7.60;61.30;9.70;103184.00;;;;5029624;28;20192;-78
2024/01/12 08:53:10;;;;;;;4.80;2.45;;;7.60;61.40;9.70;103183.00;;;;5032786;28;20650;-78
2024/01/12 08:55:37;;;;;;;4.32;2.60;;;7.60;61.30;9.70;103186.00;;;;5031308;28;20196;-78
2024/01/12 08:58:05;;;;;;;5.90;2.80;;;7.70;61.40;9.70;103185.00;;;;5031764;28;20627;-78
2024/01/12 09:00:33;;;;;;;6.35;2.53;;;7.70;61.40;9.80;103181.00;;;;5032451;28;20200;-77
2024/01/12 09:03:00;;;;;;;3.92;2.58;;;7.70;61.50;9.80;103182.00;;;;5028526;28;20240;-78
2024/01/12 09:05:27;;;;;;;5.95;3.13;;;7.70;61.60;9.80;103179.00;;;;5027993;28;20307;-77
2024/01/12 09:07:54;;;;;;;6.65;2.95;;;7.70;61.60;9.80;103181.00;;;;5025261;28;20579;-77
2024/01/12 09:10:21;;;;;;;3.67;2.25;;;7.80;61.50;9.90;103172.00;;;;5028719;28;20193;-78
2024/01/12 09:12:48;;;;;;;6.15;2.90;;;7.80;61.50;9.80;103171.00;;;;5032075;28;20195;-77
2024/01/12 09:15:16;;;;;;;12.32;2.55;;;7.80;61.60;9.90;103170.00;;;;5029080;28;20323;-77
2024/01/12 09:17:43;;;;;;;4.57;2.75;;;7.90;61.60;9.90;103172.00;;;;5031816;28;20219;-77
2024/01/12 09:20:12;;;;;;;5.70;2.95;;;7.90;61.60;9.90;103167.00;;;;5027317;28;20192;-76
2024/01/12 09:22:39;;;;;;;4.22;2.50;;;7.90;61.60;10.00;103166.00;;;;5033565;28;20227;-77
2024/01/12 09:25:07;;;;;;;6.13;2.65;;;7.90;61.60;10.00;103171.00;;;;5037945;28;20233;-77
2024/01/12 09:27:34;;;;;;;4.50;2.70;;;7.90;61.60;10.00;103165.00;;;;5042424;28;20202;-77
2024/01/12 09:30:01;;;;;;;4.95;2.40;;;8.00;61.70;10.10;103167.00;;;;5049095;28;20200;-76
2024/01/12 09:32:29;;;;;;;5.57;2.80;;;8.00;61.70;10.10;103170.00;;;;5041548;28;20294;-77
2024/01/12 09:34:56;;;;;;;4.75;2.65;;;8.00;61.80;10.10;103175.00;;;;5049557;28;20210;-77
2024/01/12 09:37:23;;;;;;;6.28;2.90;;;8.10;61.80;10.20;103182.00;;;;5047962;28;20258;-76
2024/01/12 09:39:50;;;;;;;4.75;2.78;;;8.10;62.40;10.20;103175.00;;;;5041078;28;20196;-77
2024/01/12 09:42:18;;;;;;;3.75;2.75;;;8.10;62.40;10.20;103176.00;;;;5032062;28;20310;-77
2024/01/12 09:44:50;;;;;;;4.32;2.50;;;8.20;61.80;10.20;103172.00;;;;5042654;28;20205;-77
2024/01/12 09:47:17;;;;;;;3.90;2.38;;;8.20;61.70;10.30;103178.00;;;;5030685;28;20192;-77
2024/01/12 09:49:46;;;;;;;3.83;2.15;;;8.30;62.40;10.30;103180.00;;;;5014382;28;20691;-77
2024/01/12 09:52:13;;;;;;;5.85;2.58;;;8.30;61.70;10.40;103176.00;;;;5019932;28;20291;-77
2024/01/12 09:54:41;;;;;;;4.28;2.42;;;8.30;61.70;10.40;103176.00;;;;5011716;28;20288;-77
2024/01/12 09:57:08;;;;;;;4.03;2.88;;;8.40;61.80;10.40;103172.00;;;;5017141;28;20645;-77
2024/01/12 09:59:38;;;;;;;5.25;2.20;;;8.40;61.70;10.40;103179.00;;;;5033346;28;20198;-77
2024/01/12 10:02:11;;;;;;;8.63;2.42;;;8.40;61.70;10.40;103181.00;;;;5025206;28;20231;-77
2024/01/12 10:04:38;;;;;;;3.92;2.22;;;8.40;61.70;10.50;103181.00;;;;5025739;28;20662;-78
2024/01/12 10:07:07;;;;;;;6.30;3.10;;;8.50;61.60;10.50;103189.00;;;;5031098;28;20214;-77
2024/01/12 10:09:34;;;;;;;5.10;2.47;;;8.50;61.60;10.60;103174.00;;;;5029206;28;20661;-75
2024/01/12 10:12:01;;;;;;;6.90;2.95;;;8.60;61.70;10.60;103180.00;;;;5031092;28;20358;-75
2024/01/12 10:14:28;;;;;;;6.00;2.50;;;8.60;61.60;10.60;103179.00;;;;5031365;28;20688;-75
2024/01/12 10:16:57;;;;;;;7.35;2.70;;;8.60;61.60;10.70;103175.00;;;;5030691;28;20203;-78
2024/01/12 10:19:24;;;;;;;4.75;2.17;;;8.70;61.70;10.70;103165.00;;;;5045081;28;20214;-75
2024/01/12 10:21:52;;;;;;;3.03;2.17;;;8.70;61.60;10.70;103161.00;;;;5043450;28;20219;-75
2024/01/12 10:24:22;;;;;;;11.07;2.92;;;8.70;61.60;10.70;103167.00;;;;5036546;28;20287;-76
2024/01/12 10:26:51;;;;;;;4.10;2.10;;;8.70;61.60;10.80;103177.00;;;;5036105;28;20768;-76
2024/01/12 10:29:19;;;;;;;3.92;2.40;;;8.80;61.60;10.80;103172.00;;;;5028840;28;20196;-76
2024/01/12 10:31:48;;;;;;;5.10;2.70;;;8.80;61.60;10.90;103181.00;;;;5040656;28;20199;-76
2024/01/12 10:34:15;;;;;;;3.47;2.15;;;8.80;61.60;10.90;103167.00;;;;5044650;28;20199;-76
2024/01/12 10:36:43;;;;;;;4.13;2.35;;;8.90;61.60;10.90;103167.00;;;;5032058;28;20293;-76
2024/01/12 10:39:12;;;;;;;4.88;2.05;;;8.90;61.40;10.90;103169.00;;;;5027422;28;20621;-76
2024/01/12 10:41:43;;;;;;;4.85;2.25;;;8.90;61.40;10.90;103160.00;;;;5032424;28;20541;-76
2024/01/12 10:44:14;;;;;;;5.10;2.47;;;9.00;61.40;10.90;103155.00;;;;5032658;28;20224;-76
2024/01/12 10:46:45;;;;;;;4.93;2.08;;;9.00;61.30;11.00;103148.00;;;;5030745;28;20199;-76
2024/01/12 10:49:17;;;;;;;3.10;1.98;;;9.00;61.40;11.00;103151.00;;;;5032148;28;20193;-76
2024/01/12 10:51:58;;;;;;;7.25;2.55;;;9.10;61.40;10.90;103151.00;;;;5033989;28;20204;-76
2024/01/12 10:54:30;;;;;;;8.25;2.53;;;9.10;61.30;11.00;103144.00;;;;5035090;28;20748;-76
2024/01/12 10:56:59;;;;;;;5.43;2.40;;;9.10;61.30;11.10;103146.00;;;;5032174;28;20208;-76
2024/01/12 10:59:28;;;;;;;3.67;2.28;;;9.10;61.30;11.10;103142.00;;;;5034690;28;20546;-75
2024/01/12 11:01:58;;;;;;;5.25;2.70;;;9.10;61.40;11.10;103147.00;;;;5034734;28;20298;-76